createdAt,value
2019-03-22T00:02:10.206Z,16.34
2019-03-22T00:04:43.815Z,15.78
2019-03-22T00:07:17.270Z,15.29
2019-03-22T00:09:49.765Z,14.82
2019-03-22T00:12:23.410Z,14.35
2019-03-22T00:14:55.785Z,13.89
2019-03-22T00:17:28.305Z,13.51
2019-03-22T00:20:00.751Z,13.13
2019-03-22T00:22:32.947Z,12.73
2019-03-22T00:25:07.686Z,13.75
2019-03-22T00:27:40.327Z,15.70
2019-03-22T00:30:13.620Z,17.26
2019-03-22T00:32:46.070Z,17.30
2019-03-22T00:35:18.630Z,16.56
2019-03-22T00:37:51.148Z,15.89
2019-03-22T00:40:23.535Z,15.31
2019-03-22T00:42:55.848Z,14.78
2019-03-22T00:45:28.170Z,14.27
2019-03-22T00:48:00.525Z,13.83
2019-03-22T00:50:32.855Z,13.34
2019-03-22T00:53:05.331Z,12.96
2019-03-22T00:55:37.753Z,12.52
2019-03-22T00:58:10.346Z,12.16
2019-03-22T01:00:42.905Z,13.11
2019-03-22T01:03:15.490Z,15.03
2019-03-22T01:05:49.050Z,16.55
2019-03-22T01:08:22.840Z,16.61
2019-03-22T01:10:55.190Z,15.89
2019-03-22T01:13:27.778Z,15.21
2019-03-22T01:16:00.295Z,14.64
2019-03-22T01:18:33.580Z,14.10
2019-03-22T01:21:05.785Z,13.62
2019-03-22T01:23:38.606Z,13.14
2019-03-22T01:26:11.023Z,12.69
2019-03-22T01:28:43.245Z,12.28
2019-03-22T01:31:15.880Z,11.89
2019-03-22T01:33:48.415Z,11.48
2019-03-22T01:36:20.755Z,12.45
2019-03-22T01:38:53.090Z,14.39
2019-03-22T01:41:25.661Z,16.03
2019-03-22T01:43:58.135Z,16.19
2019-03-22T01:46:30.407Z,15.44
2019-03-22T01:49:02.796Z,14.76
2019-03-22T01:51:35.256Z,14.17
2019-03-22T01:54:07.800Z,13.68
2019-03-22T01:56:40.312Z,13.20
2019-03-22T01:59:12.565Z,12.73
2019-03-22T02:01:44.755Z,12.28
2019-03-22T02:04:17.125Z,11.89
2019-03-22T02:06:49.305Z,11.49
2019-03-22T02:09:21.666Z,12.56
2019-03-22T02:11:53.819Z,14.64
2019-03-22T02:14:26.100Z,16.24
2019-03-22T02:16:58.375Z,16.35
2019-03-22T02:19:30.735Z,15.61
2019-03-22T02:22:03.240Z,14.92
2019-03-22T02:24:35.685Z,14.29
2019-03-22T02:27:08.057Z,13.82
2019-03-22T02:29:40.425Z,13.32
2019-03-22T02:32:13.852Z,12.82
2019-03-22T02:34:46.089Z,12.39
2019-03-22T11:52:58.155Z,14.00
2019-03-22T11:55:30.727Z,13.83
2019-03-22T11:58:03.091Z,15.10
2019-03-22T12:00:35.565Z,17.06
2019-03-22T12:03:08.295Z,18.35
2019-03-22T12:05:40.861Z,18.54
2019-03-22T12:08:13.465Z,18.03
2019-03-22T12:10:45.655Z,17.64
2019-03-22T12:13:18.025Z,17.27
2019-03-22T12:15:50.317Z,16.99
2019-03-22T12:18:22.545Z,16.71
2019-03-22T12:20:56.586Z,16.41
2019-03-22T12:23:29.040Z,16.13
2019-03-22T12:26:01.936Z,15.88
2019-03-22T12:28:34.650Z,15.62
2019-03-22T12:31:07.550Z,15.40
2019-03-22T12:33:40.480Z,15.17
2019-03-22T12:36:12.961Z,14.97
2019-03-22T12:38:45.430Z,14.78
2019-03-22T12:41:17.815Z,14.61
2019-03-22T12:43:50.290Z,14.47
2019-03-22T12:46:23.135Z,14.29
2019-03-22T12:48:55.790Z,14.16
2019-03-22T12:51:28.231Z,14.01
2019-03-22T12:54:01.065Z,15.18
2019-03-22T12:56:34.810Z,17.03
2019-03-22T12:59:07.650Z,18.37
2019-03-22T13:01:40.430Z,18.54
2019-03-22T13:04:12.975Z,18.02
2019-03-22T13:06:45.451Z,17.55
2019-03-22T13:09:17.975Z,17.13
2019-03-22T13:11:50.246Z,16.72
2019-03-22T13:14:22.700Z,16.34
2019-03-22T13:16:54.615Z,15.99
2019-03-22T13:19:27.271Z,15.66
2019-03-22T13:21:59.745Z,15.37
2019-03-22T13:24:32.094Z,15.11
2019-03-22T13:27:04.500Z,14.87
2019-03-22T13:29:36.829Z,14.64
2019-03-22T13:32:09.390Z,14.42
2019-03-22T13:34:41.865Z,14.20
2019-03-22T13:37:14.125Z,13.96
2019-03-22T13:39:46.360Z,13.72
2019-03-22T13:42:18.910Z,14.89
2019-03-22T13:44:51.156Z,16.85
2019-03-22T13:47:23.775Z,18.41
2019-03-22T13:49:56.368Z,18.58
2019-03-22T13:52:28.750Z,17.96
2019-03-22T13:55:01.515Z,17.44
2019-03-22T13:57:33.970Z,16.95
2019-03-22T14:00:15.675Z,16.55
2019-03-22T14:02:48.165Z,16.13
2019-03-22T14:05:20.315Z,15.78
2019-03-22T14:07:52.679Z,15.41
2019-03-22T14:10:32.936Z,15.09
2019-03-22T14:13:06.755Z,14.78
2019-03-22T14:15:38.935Z,14.48
2019-03-22T14:18:11.445Z,14.21
2019-03-22T14:20:44.355Z,13.96
2019-03-22T14:23:16.696Z,13.76
2019-03-22T14:25:49.422Z,14.80
2019-03-22T14:28:21.875Z,16.68
2019-03-22T14:30:54.359Z,17.86
2019-03-22T14:33:26.655Z,18.03
2019-03-22T14:35:59.566Z,17.45
2019-03-22T14:38:32.055Z,16.92
2019-03-22T14:41:04.879Z,16.47
2019-03-22T14:43:37.179Z,16.09
2019-03-22T14:46:09.619Z,15.68
2019-03-22T14:48:43.625Z,15.35
2019-03-22T14:51:16.205Z,15.00
2019-03-22T14:53:49.025Z,14.69
2019-03-22T14:56:21.925Z,14.37
2019-03-22T14:58:54.345Z,14.06
2019-03-22T15:01:27.050Z,13.80
2019-03-22T15:03:59.395Z,14.94
2019-03-22T15:06:31.895Z,16.83
2019-03-22T15:09:06.260Z,18.28
2019-03-22T15:11:39.010Z,18.30
2019-03-22T15:14:29.296Z,17.65
2019-03-22T15:17:12.925Z,17.05
2019-03-22T15:19:47.088Z,16.54
2019-03-22T15:22:27.263Z,16.10
2019-03-22T15:25:17.075Z,15.70
2019-03-22T15:27:51.539Z,15.29
2019-03-22T15:30:43.010Z,14.92
2019-03-22T15:33:20.954Z,14.56
2019-03-22T15:36:13.507Z,14.25
2019-03-22T15:39:03.126Z,13.94
2019-03-22T15:41:37.159Z,15.15
2019-03-22T15:44:09.903Z,16.92
2019-03-22T15:46:42.510Z,17.31
2019-03-22T15:49:15.203Z,16.76
2019-03-22T15:51:48.879Z,16.28
2019-03-22T15:54:21.785Z,15.86
2019-03-22T15:56:54.350Z,15.48
2019-03-22T15:59:26.670Z,15.15
2019-03-22T16:01:59.045Z,14.80
2019-03-22T16:04:31.665Z,14.54
2019-03-22T16:07:04.141Z,14.24
2019-03-22T16:09:36.720Z,15.33
2019-03-22T16:12:09.427Z,17.21
2019-03-22T16:14:42.185Z,18.48
2019-03-22T16:17:14.935Z,18.58
2019-03-22T16:19:47.500Z,17.95
2019-03-22T16:22:20.216Z,17.40
2019-03-22T16:24:52.705Z,16.91
2019-03-22T16:27:25.585Z,16.48
2019-03-22T16:29:58.975Z,16.06
2019-03-22T16:32:31.670Z,15.70
2019-03-22T16:35:05.562Z,15.37
2019-03-22T16:37:38.315Z,15.02
2019-03-22T16:40:12.166Z,14.68
2019-03-22T16:42:45.230Z,14.37
2019-03-22T16:45:33.696Z,14.07
2019-03-22T16:48:06.600Z,15.42
2019-03-22T16:50:40.120Z,17.19
2019-03-22T16:53:12.581Z,17.54
2019-03-22T16:55:45.040Z,16.96
2019-03-22T16:58:17.471Z,16.44
2019-03-22T17:00:50.137Z,15.97
2019-03-22T17:03:22.910Z,15.57
2019-03-22T17:05:55.800Z,15.15
2019-03-22T17:08:28.225Z,14.82
2019-03-22T17:11:00.606Z,14.45
2019-03-22T17:13:32.990Z,14.10
2019-03-22T17:16:05.566Z,15.06
2019-03-22T17:18:39.095Z,16.82
2019-03-22T17:21:11.601Z,17.21
2019-03-22T17:23:43.995Z,16.61
2019-03-22T17:26:16.331Z,16.06
2019-03-22T17:28:48.691Z,15.54
2019-03-22T17:31:21.126Z,15.11
2019-03-22T17:33:53.686Z,14.71
2019-03-22T17:36:26.172Z,14.29
2019-03-22T17:38:58.506Z,13.93
2019-03-22T17:41:30.951Z,13.59
2019-03-22T17:44:03.314Z,14.66
2019-03-22T17:46:35.830Z,16.40
2019-03-22T17:49:08.201Z,17.88
2019-03-22T17:51:40.500Z,17.96
2019-03-22T17:54:12.867Z,17.21
2019-03-22T17:56:45.332Z,16.54
2019-03-22T17:59:17.786Z,15.94
2019-03-22T18:01:50.125Z,15.42
2019-03-22T18:04:24.309Z,14.92
2019-03-22T18:06:56.900Z,14.48
2019-03-22T18:09:29.286Z,14.03
2019-03-22T18:12:01.645Z,13.66
2019-03-22T18:14:33.961Z,13.32
2019-03-22T18:17:06.286Z,14.37
2019-03-22T18:19:38.946Z,16.21
2019-03-22T18:22:11.181Z,17.72
2019-03-22T18:24:43.431Z,17.82
2019-03-22T18:27:15.841Z,17.10
2019-03-22T18:29:47.971Z,16.48
2019-03-22T18:32:20.207Z,15.92
2019-03-22T18:34:52.521Z,15.47
2019-03-22T18:37:25.122Z,15.02
2019-03-22T18:39:57.796Z,14.59
2019-03-22T18:42:30.186Z,14.20
2019-03-22T18:45:02.367Z,13.83
2019-03-22T18:47:35.080Z,13.48
2019-03-22T18:50:09.576Z,14.56
2019-03-22T18:52:43.276Z,16.55
2019-03-22T18:55:15.866Z,18.19
2019-03-22T18:57:48.212Z,18.25
2019-03-22T19:00:20.512Z,17.54
2019-03-22T19:02:52.879Z,16.88
2019-03-22T19:05:25.316Z,16.33
2019-03-22T19:07:57.640Z,15.82
2019-03-22T19:10:30.042Z,15.34
2019-03-22T19:13:02.366Z,14.96
2019-03-22T19:15:34.851Z,14.54
2019-03-22T19:18:07.291Z,14.17
2019-03-22T19:20:40.179Z,13.82
2019-03-22T19:23:12.637Z,14.89
2019-03-22T19:25:45.105Z,16.89
2019-03-22T19:28:17.486Z,17.33
2019-03-22T19:30:51.200Z,16.66
2019-03-22T19:33:24.111Z,16.10
2019-03-22T19:35:56.570Z,15.61
2019-03-22T19:38:28.951Z,15.20
2019-03-22T19:41:01.610Z,14.78
2019-03-22T19:43:34.447Z,14.38
2019-03-22T19:46:06.707Z,14.04
2019-03-22T19:48:39.034Z,15.07
2019-03-22T19:51:11.576Z,17.03
2019-03-22T19:53:44.226Z,17.48
2019-03-22T19:56:16.621Z,16.85
2019-03-22T19:58:48.916Z,16.24
2019-03-22T20:01:21.406Z,15.76
2019-03-22T20:03:53.809Z,15.31
2019-03-22T20:06:26.211Z,14.90
2019-03-22T20:08:58.506Z,14.51
2019-03-22T20:11:31.023Z,14.11
2019-03-22T20:14:03.821Z,15.29
2019-03-22T20:16:35.966Z,17.29
2019-03-22T20:19:08.510Z,18.76
2019-03-22T20:21:41.116Z,18.81
2019-03-22T20:24:13.561Z,18.05
2019-03-22T20:26:46.220Z,17.40
2019-03-22T20:29:18.911Z,16.85
2019-03-22T20:31:51.165Z,16.37
2019-03-22T20:34:23.559Z,15.88
2019-03-22T20:36:56.181Z,15.45
2019-03-22T20:39:28.375Z,15.02
2019-03-22T20:42:00.991Z,14.64
2019-03-22T20:44:34.281Z,14.25
2019-03-22T20:47:06.826Z,15.34
2019-03-22T20:49:39.376Z,17.24
2019-03-22T20:52:11.935Z,17.67
2019-03-22T20:54:44.575Z,17.05
2019-03-22T20:57:17.197Z,16.48
2019-03-22T20:59:49.716Z,15.97
2019-03-22T21:02:22.096Z,15.51
2019-03-22T21:04:55.032Z,15.11
2019-03-22T21:07:27.405Z,14.72
2019-03-22T21:09:59.793Z,14.39
2019-03-22T21:12:32.517Z,14.01
2019-03-22T21:15:06.792Z,15.10
2019-03-22T21:17:39.057Z,17.00
2019-03-22T21:20:11.846Z,17.45
2019-03-22T21:22:44.507Z,16.83
2019-03-22T21:25:16.940Z,16.27
2019-03-22T21:27:50.411Z,15.78
2019-03-22T21:30:22.861Z,15.35
2019-03-22T21:32:55.235Z,14.97
2019-03-22T21:35:36.947Z,14.61
2019-03-22T21:38:10.495Z,14.25
2019-03-22T21:40:35.550Z,13.92
2019-03-22T21:43:07.790Z,13.62
2019-03-22T21:45:40.245Z,14.73
2019-03-22T21:48:12.695Z,16.64
2019-03-22T21:50:45.405Z,18.12
2019-03-22T21:53:17.960Z,18.13
2019-03-22T21:55:50.505Z,17.45
2019-03-22T21:58:22.835Z,16.89
2019-03-22T22:00:55.240Z,16.37
2019-03-22T22:03:27.555Z,15.93
2019-03-22T22:06:00.015Z,15.47
2019-03-22T22:08:32.905Z,15.10
2019-03-22T22:11:05.360Z,14.69
2019-03-22T22:13:37.698Z,14.34
2019-03-22T22:16:10.171Z,14.00
2019-03-22T22:18:42.685Z,13.68
2019-03-22T22:21:16.085Z,13.38
2019-03-22T22:23:48.590Z,14.55
2019-03-22T22:26:21.030Z,16.64
2019-03-22T22:28:53.791Z,17.06
2019-03-22T22:31:26.050Z,16.50
2019-03-22T22:33:59.560Z,15.97
2019-03-22T22:36:32.061Z,15.51
2019-03-22T22:39:06.190Z,15.10
2019-03-22T22:41:40.328Z,14.72
2019-03-22T22:44:12.771Z,14.37
2019-03-22T22:46:45.235Z,14.04
2019-03-22T22:49:17.700Z,13.73
2019-03-22T22:51:49.946Z,13.42
2019-03-22T22:54:22.205Z,14.54
2019-03-22T22:56:54.700Z,16.55
2019-03-22T22:59:26.905Z,17.02
2019-03-22T23:01:59.287Z,16.41
2019-03-22T23:04:32.240Z,15.82
2019-03-22T23:07:04.830Z,15.33
2019-03-22T23:09:37.104Z,14.89
2019-03-22T23:12:09.295Z,14.47
2019-03-22T23:14:41.715Z,14.04
2019-03-22T23:17:14.037Z,13.63
2019-03-22T23:19:46.596Z,13.25
2019-03-22T23:22:18.889Z,12.93
2019-03-22T23:24:51.005Z,13.96
2019-03-22T23:27:24.731Z,15.92
2019-03-22T23:29:56.886Z,16.35
2019-03-22T23:32:29.196Z,15.70
2019-03-22T23:35:01.475Z,15.07
2019-03-22T23:37:34.073Z,14.56
2019-03-22T23:40:07.890Z,14.11
2019-03-22T23:42:41.230Z,13.62
2019-03-22T23:45:13.477Z,13.24
2019-03-22T23:47:45.880Z,12.83
2019-03-22T23:50:18.275Z,12.44
2019-03-22T23:52:50.595Z,13.58
2019-03-22T23:55:22.975Z,15.52
2019-03-22T23:57:55.180Z,17.06
